createdAt,value
2022-11-19T00:01:15.840Z,97790.28
2022-11-19T00:03:19.792Z,97784.25
2022-11-19T00:05:24.371Z,97787.47
2022-11-19T00:07:26.139Z,97786.09
2022-11-19T00:09:27.718Z,97787.16
2022-11-19T00:11:48.062Z,97785.75
2022-11-19T00:13:49.925Z,97779.78
2022-11-19T00:15:51.551Z,97778.66
2022-11-19T00:17:53.153Z,97777.00
2022-11-19T00:19:54.664Z,97777.28
2022-11-19T00:21:56.418Z,97786.75
2022-11-19T00:24:01.349Z,97787.81
2022-11-19T00:26:11.316Z,97791.56
2022-11-19T00:28:13.094Z,97799.16
2022-11-19T00:30:40.740Z,97803.19
2022-11-19T00:32:36.646Z,97801.81
2022-11-19T00:34:38.108Z,97805.84
2022-11-19T00:36:39.740Z,97803.13
2022-11-19T00:38:41.919Z,97792.78
2022-11-19T00:40:43.670Z,97794.69
2022-11-19T00:43:05.261Z,97804.16
2022-11-19T00:45:07.279Z,97803.56
2022-11-19T00:47:08.880Z,97808.69
2022-11-19T00:49:10.421Z,97819.53
2022-11-19T00:51:14.994Z,97815.69
2022-11-19T00:53:16.903Z,97816.50
2022-11-19T00:55:20.770Z,97819.47
2022-11-19T00:57:22.506Z,97815.13
2022-11-19T00:59:24.280Z,97825.63
2022-11-19T01:01:26.514Z,97834.03
2022-11-19T01:03:28.229Z,97824.25
2022-11-19T01:05:31.295Z,97830.75
2022-11-19T01:07:32.966Z,97836.41
2022-11-19T01:09:34.550Z,97835.63
2022-11-19T01:11:37.496Z,97833.47
2022-11-19T01:13:39.629Z,97835.09
2022-11-19T01:15:41.242Z,97844.31
2022-11-19T01:17:45.681Z,97840.22
2022-11-19T01:19:47.193Z,97841.03
2022-11-19T01:21:48.993Z,97847.53
2022-11-19T01:23:51.540Z,97852.38
2022-11-19T01:25:55.564Z,97855.31
2022-11-19T01:27:58.453Z,97853.13
2022-11-19T01:30:05.447Z,97849.59
2022-11-19T01:32:07.070Z,97848.50
2022-11-19T01:34:08.614Z,97844.16
2022-11-19T01:36:25.058Z,97852.31
2022-11-19T01:38:27.647Z,97856.34
2022-11-19T01:40:29.259Z,97857.41
2022-11-19T01:42:51.432Z,97852.22
2022-11-19T01:45:06.649Z,97858.41
2022-11-19T01:47:12.489Z,97856.75
2022-11-19T01:49:20.453Z,97857.25
2022-11-19T01:51:26.703Z,97855.63
2022-11-19T01:53:35.315Z,97861.28
2022-11-19T01:55:38.541Z,97855.84
2022-11-19T01:57:40.973Z,97859.88
2022-11-19T01:59:44.129Z,97856.94
2022-11-19T02:01:46.063Z,97869.09
2022-11-19T02:03:49.228Z,97873.13
2022-11-19T02:05:53.824Z,97863.59
2022-11-19T02:07:58.579Z,97862.19
2022-11-19T02:10:02.697Z,97861.59
2022-11-19T02:12:47.517Z,97859.16
2022-11-19T02:14:58.823Z,97858.31
2022-11-19T02:17:29.691Z,97864.22
2022-11-19T02:19:59.083Z,97864.84
2022-11-19T02:22:51.732Z,97856.63
2022-11-19T02:24:55.750Z,97856.63
2022-11-19T02:27:22.436Z,97862.53
2022-11-19T02:29:29.927Z,97859.81
2022-11-19T02:31:43.441Z,97865.72
2022-11-19T02:34:09.026Z,97871.63
2022-11-19T02:36:33.612Z,97867.03
2022-11-19T02:38:44.642Z,97866.22
2022-11-19T02:40:54.883Z,97871.53
2022-11-19T02:43:05.536Z,97868.59
2022-11-19T02:45:31.263Z,97863.41
2022-11-19T02:47:41.019Z,97876.72
2022-11-19T02:49:47.409Z,97864.25
2022-11-19T02:51:50.181Z,97865.28
2022-11-19T02:53:52.946Z,97877.44
2022-11-19T02:56:13.312Z,97877.22
2022-11-19T02:58:39.766Z,97882.88
2022-11-19T03:01:08.901Z,97886.09
2022-11-19T03:03:33.762Z,97892.81
2022-11-19T03:05:39.204Z,97885.75
2022-11-19T03:07:41.078Z,97885.75
2022-11-19T03:09:49.545Z,97888.72
2022-11-19T03:11:59.278Z,97885.41
2022-11-19T03:14:33.212Z,97889.19
2022-11-19T03:16:41.596Z,97884.81
2022-11-19T03:18:50.891Z,97890.81
2022-11-19T03:21:19.016Z,97897.88
2022-11-19T03:23:29.606Z,97892.94
2022-11-19T03:25:43.770Z,97896.75
2022-11-19T03:27:53.636Z,97885.31
2022-11-19T03:29:59.923Z,97895.91
2022-11-19T03:32:10.165Z,97902.38
2022-11-19T03:34:17.996Z,97903.22
2022-11-19T03:36:50.933Z,97910.78
2022-11-19T03:38:58.216Z,97915.09
2022-11-19T03:41:03.276Z,97909.69
2022-11-19T03:43:09.609Z,97918.66
2022-11-19T03:45:19.760Z,97910.19
2022-11-19T03:47:26.083Z,97914.53
2022-11-19T03:49:31.842Z,97915.38
2022-11-19T03:51:44.080Z,97917.25
2022-11-19T03:53:45.882Z,97921.34
2022-11-19T03:55:54.026Z,97925.94
2022-11-19T03:58:02.101Z,97923.84
2022-11-19T04:00:04.909Z,97922.19
2022-11-19T04:02:14.626Z,97927.84
2022-11-19T04:04:34.629Z,97934.31
2022-11-19T04:06:36.424Z,97936.78
2022-11-19T04:08:39.371Z,97937.84
2022-11-19T04:10:41.069Z,97923.75
2022-11-19T04:12:44.623Z,97925.06
2022-11-19T04:14:46.636Z,97929.63
2022-11-19T04:16:51.774Z,97932.00
2022-11-19T04:18:53.502Z,97929.53
2022-11-19T04:20:56.191Z,97938.25
2022-11-19T04:22:57.770Z,97934.72
2022-11-19T04:25:00.320Z,97929.53
2022-11-19T04:27:02.604Z,97934.13
2022-11-19T04:29:06.648Z,97931.06
2022-11-19T04:31:12.359Z,97941.31
2022-11-19T04:33:19.234Z,97936.75
2022-11-19T04:35:23.726Z,97945.69
2022-11-19T04:37:28.216Z,97944.28
2022-11-19T04:39:29.857Z,97949.94
2022-11-19T04:41:35.261Z,97941.81
2022-11-19T04:43:36.903Z,97931.81
2022-11-19T04:45:38.663Z,97938.03
2022-11-19T04:47:43.415Z,97936.38
2022-11-19T04:49:45.389Z,97935.59
2022-11-19T04:51:50.118Z,97937.22
2022-11-19T04:53:51.640Z,97946.44
2022-11-19T04:55:55.539Z,97941.22
2022-11-19T04:57:57.094Z,97937.13
2022-11-19T04:59:58.708Z,97945.25
2022-11-19T05:02:03.320Z,97941.72
2022-11-19T05:04:05.053Z,97935.72
2022-11-19T05:06:08.219Z,97932.78
2022-11-19T05:08:09.991Z,97924.88
2022-11-19T05:10:11.648Z,97920.56
2022-11-19T05:12:13.227Z,97928.69
2022-11-19T05:14:15.403Z,97933.84
2022-11-19T05:16:17.156Z,97931.59
2022-11-19T05:18:20.499Z,97930.78
2022-11-19T05:20:26.405Z,97935.41
2022-11-19T05:22:28.106Z,97930.78
2022-11-19T05:24:32.554Z,97934.00
2022-11-19T05:26:34.257Z,97930.47
2022-11-19T05:28:39.876Z,97920.69
2022-11-19T05:30:41.840Z,97929.63
2022-11-19T05:32:45.969Z,97924.78
2022-11-19T05:34:48.491Z,97925.88
2022-11-19T05:36:56.085Z,97931.03
2022-11-19T05:38:57.771Z,97940.19
2022-11-19T05:40:59.498Z,97935.03
2022-11-19T05:43:05.510Z,97944.00
2022-11-19T05:45:07.797Z,97938.31
2022-11-19T05:47:09.448Z,97945.88
2022-11-19T05:49:13.758Z,97943.75
2022-11-19T05:51:16.255Z,97945.41
2022-11-19T05:53:18.323Z,97949.16
2022-11-19T05:55:24.291Z,97952.94
2022-11-19T05:57:25.868Z,97957.53
2022-11-19T05:59:27.307Z,97954.00
2022-11-19T06:01:32.014Z,97954.00
2022-11-19T06:03:36.279Z,97958.34
2022-11-19T06:05:40.526Z,97960.47
2022-11-19T06:07:42.416Z,97961.06
2022-11-19T06:09:44.099Z,97956.69
2022-11-19T06:11:51.559Z,97961.88
2022-11-19T06:13:57.337Z,97959.41
2022-11-19T06:16:05.870Z,97965.66
2022-11-19T06:18:11.032Z,97965.88
2022-11-19T06:20:21.584Z,97970.81
2022-11-19T06:22:26.131Z,97981.41
2022-11-19T06:24:29.158Z,97972.47
2022-11-19T06:26:30.900Z,97977.88
2022-11-19T06:28:32.459Z,97980.13
2022-11-19T06:30:35.683Z,97979.50
2022-11-19T06:32:37.486Z,97979.50
2022-11-19T06:34:39.129Z,97984.34
2022-11-19T06:36:50.112Z,97990.84
2022-11-19T06:38:54.626Z,98000.59
2022-11-19T06:40:56.470Z,98006.25
2022-11-19T06:42:58.393Z,98016.50
2022-11-19T06:45:00.047Z,98020.84
2022-11-19T06:47:04.971Z,98027.56
2022-11-19T06:49:15.490Z,98023.81
2022-11-19T06:51:20.334Z,98028.97
2022-11-19T06:53:24.623Z,98018.38
2022-11-19T06:55:27.552Z,98025.44
2022-11-19T06:57:29.168Z,98034.63
2022-11-19T06:59:32.006Z,98023.22
2022-11-19T07:01:37.481Z,98020.53
2022-11-19T07:03:39.140Z,98022.41
2022-11-19T07:05:40.868Z,98031.34
2022-11-19T07:07:42.506Z,98025.69
2022-11-19T07:09:44.355Z,98027.56
2022-11-19T07:11:48.860Z,98038.16
2022-11-19T07:14:01.189Z,98043.81
2022-11-19T07:16:04.702Z,98042.66
2022-11-19T07:18:06.313Z,98042.41
2022-11-19T07:20:08.585Z,98043.47
2022-11-19T07:22:10.746Z,98040.16
2022-11-19T07:24:17.656Z,98045.00
2022-11-19T07:26:19.233Z,98044.41
2022-11-19T07:28:20.962Z,98041.91
2022-11-19T07:30:22.607Z,98039.22
2022-11-19T07:32:24.499Z,98041.91
2022-11-19T07:34:26.083Z,98045.47
2022-11-19T07:36:27.823Z,98041.91
2022-11-19T07:38:34.082Z,98040.03
2022-11-19T07:40:38.316Z,98052.16
2022-11-19T07:42:53.306Z,98049.13
2022-11-19T07:44:56.672Z,98046.16
2022-11-19T07:46:58.702Z,98044.50
2022-11-19T07:49:00.307Z,98049.94
2022-11-19T07:51:02.091Z,98047.72
2022-11-19T07:53:04.051Z,98046.06
2022-11-19T07:55:09.840Z,98051.72
2022-11-19T07:57:12.061Z,98057.13
2022-11-19T07:59:13.986Z,98060.88
2022-11-19T08:01:20.034Z,98059.84
2022-11-19T08:03:21.752Z,98063.34
2022-11-19T08:05:23.276Z,98050.88
2022-11-19T08:07:25.079Z,98051.09
2022-11-19T08:09:26.791Z,98061.34
2022-11-19T08:11:28.686Z,98062.66
2022-11-19T08:13:30.622Z,98058.31
2022-11-19T08:15:33.750Z,98060.19
2022-11-19T08:17:55.080Z,98062.66
2022-11-19T08:19:56.605Z,98063.09
2022-11-19T08:21:58.323Z,98057.69
2022-11-19T08:24:02.628Z,98060.19
2022-11-19T08:26:06.905Z,98071.22
2022-11-19T08:28:08.777Z,98067.72
2022-11-19T08:30:10.662Z,98070.44
2022-11-19T08:32:12.520Z,98065.22
2022-11-19T08:34:15.461Z,98057.69
2022-11-19T08:36:17.152Z,98065.22
2022-11-19T08:38:19.148Z,98063.59
2022-11-19T08:40:20.893Z,98076.06
2022-11-19T08:42:40.873Z,98076.53
2022-11-19T08:44:42.536Z,98074.91
2022-11-19T08:46:44.876Z,98074.66
2022-11-19T08:48:49.101Z,98076.78
2022-11-19T08:50:50.668Z,98086.28
2022-11-19T08:53:01.013Z,98092.16
2022-11-19T08:55:06.156Z,98093.25
2022-11-19T08:57:07.796Z,98096.75
2022-11-19T08:59:09.868Z,98096.53
2022-11-19T09:01:13.519Z,98096.53
2022-11-19T09:03:22.499Z,98092.16
2022-11-19T09:05:29.615Z,98100.28
2022-11-19T09:07:31.458Z,98098.41
2022-11-19T09:09:33.284Z,98093.81
2022-11-19T09:11:42.375Z,98093.00
2022-11-19T09:13:45.242Z,98098.41
2022-11-19T09:15:51.716Z,98094.03
2022-11-19T09:17:54.848Z,98094.03
2022-11-19T09:19:56.575Z,98100.28
2022-11-19T09:22:01.130Z,98105.13
2022-11-19T09:24:03.124Z,98106.78
2022-11-19T09:26:11.175Z,98103.81
2022-11-19T09:28:12.807Z,98105.69
2022-11-19T09:30:15.052Z,98110.91
2022-11-19T09:32:25.497Z,98119.00
2022-11-19T09:34:35.610Z,98121.47
2022-11-19T09:36:40.532Z,98129.59
2022-11-19T09:38:42.237Z,98133.97
2022-11-19T09:40:54.548Z,98129.34
2022-11-19T09:43:15.741Z,98126.06
2022-11-19T09:45:28.153Z,98128.31
2022-11-19T09:47:56.450Z,98132.66
2022-11-19T09:50:17.040Z,98134.88
2022-11-19T09:52:22.575Z,98134.28
2022-11-19T09:54:24.834Z,98130.53
2022-11-19T09:56:33.090Z,98134.09
2022-11-19T09:58:45.358Z,98134.28
2022-11-19T10:00:47.208Z,98135.72
2022-11-19T10:02:49.405Z,98139.50
2022-11-19T10:04:52.052Z,98146.78
2022-11-19T10:07:36.897Z,98129.72
2022-11-19T10:10:01.089Z,98127.59
2022-11-19T10:12:08.817Z,98134.88
2022-11-19T10:14:48.651Z,98117.47
2022-11-19T10:17:16.318Z,98122.63
2022-11-19T10:19:49.297Z,98122.19
2022-11-19T10:21:59.755Z,98129.00
2022-11-19T10:24:19.285Z,98132.53
2022-11-19T10:26:32.561Z,98126.66
2022-11-19T10:28:40.752Z,98127.00
2022-11-19T10:30:49.272Z,98128.66
2022-11-19T10:33:02.028Z,98114.88
2022-11-19T10:35:30.626Z,98111.13
2022-11-19T10:37:39.317Z,98106.09
2022-11-19T10:39:47.892Z,98098.53
2022-11-19T10:41:59.662Z,98097.72
2022-11-19T10:44:39.966Z,98108.06
2022-11-19T10:46:42.241Z,98100.53
2022-11-19T10:48:47.975Z,98089.72
2022-11-19T10:50:52.121Z,98094.06
2022-11-19T10:53:02.711Z,98090.06
2022-11-19T10:55:54.041Z,98093.00
2022-11-19T10:58:09.639Z,98093.63
2022-11-19T11:00:14.854Z,98092.06
2022-11-19T11:02:31.466Z,98085.81
2022-11-19T11:04:33.221Z,98086.19
2022-11-19T11:06:54.201Z,98088.88
2022-11-19T11:08:56.498Z,98087.34
2022-11-19T11:10:59.360Z,98084.41
2022-11-19T11:13:34.332Z,98089.59
2022-11-19T11:15:36.401Z,98089.84
2022-11-19T11:17:39.129Z,98095.25
2022-11-19T11:19:40.909Z,98089.59
2022-11-19T11:21:43.757Z,98093.94
2022-11-19T11:23:53.606Z,98087.47
2022-11-19T11:26:14.321Z,98081.81
2022-11-19T11:28:18.660Z,98085.31
2022-11-19T11:30:20.679Z,98091.56
2022-11-19T11:32:32.649Z,98088.88
2022-11-19T11:34:43.772Z,98093.44
2022-11-19T11:36:46.260Z,98084.28
2022-11-19T11:38:50.534Z,98093.44
2022-11-19T11:42:04.386Z,98083.44
2022-11-19T11:44:04.621Z,98089.69
2022-11-19T11:46:13.116Z,98079.44
2022-11-19T11:48:22.940Z,98072.72
2022-11-19T11:50:30.761Z,98075.44
2022-11-19T11:52:51.283Z,98073.81
2022-11-19T11:55:06.866Z,98081.69
2022-11-19T11:57:20.347Z,98089.81
2022-11-19T11:59:25.620Z,98086.25
2022-11-19T12:01:30.384Z,98087.47
2022-11-19T12:03:34.366Z,98075.53
2022-11-19T12:05:56.500Z,98074.13
2022-11-19T12:08:16.109Z,98067.09
2022-11-19T12:10:32.372Z,98067.09
2022-11-19T12:12:45.546Z,98070.84
2022-11-19T12:15:10.427Z,98077.31
2022-11-19T12:17:50.527Z,98076.72
2022-11-19T12:20:22.670Z,98084.03
2022-11-19T12:22:33.576Z,98085.94
2022-11-19T12:24:52.513Z,98085.94
2022-11-19T12:27:29.241Z,98087.00
2022-11-19T12:29:49.364Z,98081.00
2022-11-19T12:32:23.272Z,98079.34
2022-11-19T12:34:30.732Z,98083.91
2022-11-19T12:36:46.072Z,98077.09
2022-11-19T12:38:51.881Z,98086.28
2022-11-19T12:41:05.365Z,98086.28
2022-11-19T12:43:18.055Z,98078.16
2022-11-19T12:45:19.946Z,98080.31
2022-11-19T12:47:52.185Z,98079.47
2022-11-19T12:50:11.193Z,98078.66
2022-11-19T12:52:39.759Z,98074.53
2022-11-19T12:54:52.407Z,98081.81
2022-11-19T12:57:34.952Z,98084.19
2022-11-19T13:00:11.372Z,98083.84
2022-11-19T13:02:22.797Z,98079.47
2022-11-19T13:04:39.143Z,98080.53
2022-11-19T13:07:25.483Z,98084.28
2022-11-19T13:09:46.277Z,98083.72
2022-11-19T13:12:00.573Z,98091.59
2022-11-19T13:14:36.320Z,98080.75
2022-11-19T13:16:40.379Z,98081.84
2022-11-19T13:19:06.506Z,98082.06
2022-11-19T13:21:57.034Z,98075.22
2022-11-19T13:24:08.213Z,98082.78
2022-11-19T13:26:18.575Z,98073.00
2022-11-19T13:28:38.615Z,98077.81
2022-11-19T13:30:45.633Z,98078.06
2022-11-19T13:33:02.800Z,98083.47
2022-11-19T13:35:11.930Z,98084.06
2022-11-19T13:37:44.136Z,98076.19
2022-11-19T13:39:53.648Z,98079.94
2022-11-19T13:42:15.775Z,98076.19
2022-11-19T13:44:36.639Z,98073.69
2022-11-19T13:46:59.214Z,98082.91
2022-11-19T13:49:25.319Z,98092.06
2022-11-19T13:51:45.604Z,98090.19
2022-11-19T13:53:50.539Z,98093.72
2022-11-19T13:56:00.298Z,98086.06
2022-11-19T13:58:14.155Z,98096.06
2022-11-19T14:00:26.691Z,98098.78
2022-11-19T14:02:58.326Z,98093.13
2022-11-19T14:05:06.265Z,98092.53
2022-11-19T14:07:33.707Z,98090.91
2022-11-19T14:09:36.818Z,98090.91
2022-11-19T14:12:03.469Z,98084.41
2022-11-19T14:14:48.620Z,98084.66
2022-11-19T14:17:18.873Z,98098.41
2022-11-19T14:19:39.134Z,98098.41
2022-11-19T14:22:08.024Z,98107.03
2022-11-19T14:24:43.763Z,98106.41
2022-11-19T14:26:49.800Z,98100.53
2022-11-19T14:28:59.587Z,98094.53
2022-11-19T14:31:05.162Z,98096.19
2022-11-19T14:33:46.624Z,98102.06
2022-11-19T14:35:49.208Z,98096.88
2022-11-19T14:37:56.890Z,98100.41
2022-11-19T14:40:11.585Z,98103.13
2022-11-19T14:42:16.597Z,98093.94
2022-11-19T14:44:28.570Z,98106.06
2022-11-19T14:46:32.788Z,98102.91
2022-11-19T14:48:40.545Z,98105.25
2022-11-19T14:51:17.772Z,98101.94
2022-11-19T14:53:22.480Z,98110.66
2022-11-19T14:55:29.132Z,98096.28
2022-11-19T14:57:43.888Z,98099.81
2022-11-19T14:59:49.906Z,98106.28
2022-11-19T15:02:02.547Z,98096.53
2022-11-19T15:04:10.828Z,98094.66
2022-11-19T15:06:17.661Z,98092.53
2022-11-19T15:08:19.330Z,98102.78
2022-11-19T15:10:21.011Z,98098.41
2022-11-19T15:12:34.624Z,98101.13
2022-11-19T15:15:08.225Z,98110.06
2022-11-19T15:17:10.807Z,98114.41
2022-11-19T15:19:43.972Z,98115.47
2022-11-19T15:22:13.461Z,98110.28
2022-11-19T15:24:43.441Z,98114.66
2022-11-19T15:27:17.290Z,98114.66
2022-11-19T15:29:33.051Z,98105.47
2022-11-19T15:31:52.937Z,98102.16
2022-11-19T15:34:09.040Z,98103.81
2022-11-19T15:36:39.203Z,98093.25
2022-11-19T15:38:50.386Z,98090.75
2022-11-19T15:40:55.938Z,98096.53
2022-11-19T15:43:03.895Z,98115.47
2022-11-19T15:45:12.325Z,98119.81
2022-11-19T15:47:31.645Z,98121.94
2022-11-19T15:49:37.696Z,98126.88
2022-11-19T15:52:16.073Z,98121.72
2022-11-19T15:54:19.427Z,98127.13
2022-11-19T15:56:21.739Z,98131.72
2022-11-19T15:58:31.529Z,98129.22
2022-11-19T16:00:48.638Z,98139.81
2022-11-19T16:02:52.778Z,98141.25
2022-11-19T16:04:55.394Z,98136.03
2022-11-19T16:07:04.379Z,98137.13
2022-11-19T16:09:06.364Z,98129.84
2022-11-19T16:11:26.902Z,98136.03
2022-11-19T16:13:47.289Z,98140.41
2022-11-19T16:16:12.508Z,98138.53
2022-11-19T16:18:19.352Z,98150.78
2022-11-19T16:20:22.262Z,98146.41
2022-11-19T16:22:24.092Z,98134.53
2022-11-19T16:24:46.010Z,98130.75
2022-11-19T16:26:48.715Z,98142.19
2022-11-19T16:28:50.715Z,98133.84
2022-11-19T16:30:55.064Z,98126.53
2022-11-19T16:32:59.189Z,98111.94
2022-11-19T16:35:26.793Z,98111.94
2022-11-19T16:37:28.703Z,98119.00
2022-11-19T16:39:32.213Z,98114.19
2022-11-19T16:41:55.104Z,98113.34
2022-11-19T16:43:57.877Z,98107.94
2022-11-19T16:46:00.773Z,98121.25
2022-11-19T16:48:03.734Z,98127.50
2022-11-19T16:50:35.857Z,98121.25
2022-11-19T16:52:43.338Z,98125.00
2022-11-19T16:54:51.106Z,98115.84
2022-11-19T16:56:52.822Z,98126.09
2022-11-19T16:59:01.706Z,98117.72
2022-11-19T17:01:04.005Z,98126.09
2022-11-19T17:03:21.095Z,98120.31
2022-11-19T17:05:24.804Z,98131.72
2022-11-19T17:07:27.949Z,98133.59
2022-11-19T17:09:47.544Z,98137.81
2022-11-19T17:12:10.128Z,98145.81
2022-11-19T17:14:30.514Z,98150.78
2022-11-19T17:16:34.146Z,98151.97
2022-11-19T17:18:36.029Z,98154.91
2022-11-19T17:20:39.763Z,98158.69
2022-11-19T17:22:41.601Z,98155.97
2022-11-19T17:24:45.819Z,98149.47
2022-11-19T17:26:49.415Z,98150.06
2022-11-19T17:28:54.886Z,98154.44
2022-11-19T17:30:57.220Z,98153.97
2022-11-19T17:33:04.702Z,98158.56
2022-11-19T17:35:30.245Z,98163.50
2022-11-19T17:37:37.728Z,98161.16
2022-11-19T17:39:41.182Z,98153.06
2022-11-19T17:42:01.856Z,98162.59
2022-11-19T17:44:33.120Z,98173.41
2022-11-19T17:46:34.715Z,98169.63
2022-11-19T17:48:39.840Z,98166.72
2022-11-19T17:50:41.456Z,98167.75
2022-11-19T17:52:43.144Z,98171.28
2022-11-19T17:54:47.566Z,98179.63
2022-11-19T17:56:49.351Z,98169.63
2022-11-19T17:58:51.463Z,98170.91
2022-11-19T18:00:52.989Z,98170.91
2022-11-19T18:02:58.969Z,98176.13
2022-11-19T18:05:20.722Z,98180.91
2022-11-19T18:07:22.416Z,98185.88
2022-11-19T18:09:24.337Z,98178.84
2022-11-19T18:11:35.659Z,98183.41
2022-11-19T18:13:38.203Z,98189.03
2022-11-19T18:15:40.693Z,98182.81
2022-11-19T18:17:42.259Z,98175.28
2022-11-19T18:19:43.925Z,98176.91
2022-11-19T18:21:45.663Z,98180.69
2022-11-19T18:23:55.303Z,98173.03
2022-11-19T18:25:59.936Z,98179.50
2022-11-19T18:28:01.793Z,98177.88
2022-11-19T18:30:03.954Z,98170.81
2022-11-19T18:32:05.769Z,98177.25
2022-11-19T18:34:20.113Z,98173.50
2022-11-19T18:36:22.747Z,98182.91
2022-11-19T18:38:24.374Z,98179.97
2022-11-19T18:40:26.015Z,98186.22
2022-11-19T18:42:28.578Z,98185.63
2022-11-19T18:44:37.679Z,98199.41
2022-11-19T18:46:41.352Z,98196.91
2022-11-19T18:48:43.452Z,98199.88
2022-11-19T18:50:45.260Z,98184.47
2022-11-19T18:52:47.617Z,98185.25
2022-11-19T18:54:49.450Z,98179.38
2022-11-19T18:56:51.574Z,98177.13
2022-11-19T18:58:53.195Z,98171.72
2022-11-19T19:00:55.024Z,98174.44
2022-11-19T19:02:56.727Z,98175.50
2022-11-19T19:05:01.526Z,98177.38
2022-11-19T19:07:03.300Z,98173.00
2022-11-19T19:09:05.411Z,98169.50
2022-11-19T19:11:27.180Z,98160.78
2022-11-19T19:13:28.890Z,98177.00
2022-11-19T19:15:36.990Z,98176.44
2022-11-19T19:17:38.953Z,98172.88
2022-11-19T19:19:41.646Z,98180.41
2022-11-19T19:21:43.508Z,98185.00
2022-11-19T19:23:45.531Z,98187.13
2022-11-19T19:25:47.225Z,98189.50
2022-11-19T19:27:48.982Z,98193.00
2022-11-19T19:29:50.873Z,98198.41
2022-11-19T19:31:52.395Z,98196.41
2022-11-19T19:33:54.065Z,98193.88
2022-11-19T19:35:55.763Z,98201.63
2022-11-19T19:37:57.418Z,98201.84
2022-11-19T19:39:59.799Z,98203.34
2022-11-19T19:42:06.120Z,98200.06
2022-11-19T19:44:07.803Z,98191.38
2022-11-19T19:46:18.359Z,98185.38
2022-11-19T19:48:23.040Z,98190.78
2022-11-19T19:50:24.841Z,98190.16
2022-11-19T19:52:28.540Z,98193.94
2022-11-19T19:54:31.209Z,98196.66
2022-11-19T19:56:33.368Z,98204.75
2022-11-19T19:58:35.062Z,98197.69
2022-11-19T20:00:41.137Z,98207.69
2022-11-19T20:02:45.626Z,98206.88
2022-11-19T20:04:49.701Z,98210.63
2022-11-19T20:06:54.322Z,98219.34
2022-11-19T20:08:56.714Z,98215.00
2022-11-19T20:11:07.255Z,98220.88
2022-11-19T20:13:27.988Z,98220.41
2022-11-19T20:15:33.638Z,98211.91
2022-11-19T20:17:35.516Z,98211.09
2022-11-19T20:19:40.249Z,98222.50
2022-11-19T20:21:42.191Z,98227.09
2022-11-19T20:23:44.353Z,98221.06
2022-11-19T20:25:46.241Z,98221.06
2022-11-19T20:27:47.903Z,98221.06
2022-11-19T20:29:57.133Z,98224.03
2022-11-19T20:31:59.843Z,98227.56
2022-11-19T20:34:06.547Z,98225.91
2022-11-19T20:36:15.796Z,98229.44
2022-11-19T20:38:18.000Z,98238.59
2022-11-19T20:40:19.866Z,98225.91
2022-11-19T20:42:49.507Z,98223.44
2022-11-19T20:44:51.303Z,98213.66
2022-11-19T20:47:02.224Z,98217.44
2022-11-19T20:49:03.957Z,98213.06
2022-11-19T20:51:09.400Z,98209.91
2022-11-19T20:53:11.085Z,98214.25
2022-11-19T20:55:14.092Z,98209.91
2022-11-19T20:57:19.775Z,98217.19
2022-11-19T20:59:23.414Z,98203.66
2022-11-19T21:01:29.855Z,98209.66
2022-11-19T21:03:36.322Z,98215.78
2022-11-19T21:05:38.132Z,98217.44
2022-11-19T21:07:40.714Z,98213.06
2022-11-19T21:09:42.625Z,98220.13
2022-11-19T21:11:44.448Z,98219.53
2022-11-19T21:13:46.179Z,98227.19
2022-11-19T21:15:47.816Z,98222.00
2022-11-19T21:17:52.512Z,98215.78
2022-11-19T21:19:54.146Z,98215.31
2022-11-19T21:21:55.752Z,98214.72
2022-11-19T21:23:57.612Z,98226.59
2022-11-19T21:26:03.811Z,98228.72
2022-11-19T21:28:06.061Z,98230.00
2022-11-19T21:30:08.416Z,98229.16
2022-11-19T21:32:10.146Z,98219.19
2022-11-19T21:34:17.772Z,98221.88
2022-11-19T21:36:22.409Z,98226.47
2022-11-19T21:38:29.513Z,98229.16
2022-11-19T21:40:31.321Z,98209.41
2022-11-19T21:42:34.200Z,98204.56
2022-11-19T21:44:35.724Z,98203.78
2022-11-19T21:46:37.669Z,98203.78
2022-11-19T21:48:39.450Z,98211.06
2022-11-19T21:50:41.327Z,98208.56
2022-11-19T21:52:43.073Z,98207.53
2022-11-19T21:54:45.006Z,98211.06
2022-11-19T21:56:52.047Z,98222.34
2022-11-19T21:59:25.567Z,98223.38
2022-11-19T22:01:28.110Z,98217.38
2022-11-19T22:03:33.444Z,98220.09
2022-11-19T22:05:35.302Z,98211.97
2022-11-19T22:07:37.397Z,98213.84
2022-11-19T22:09:42.245Z,98218.22
2022-11-19T22:11:45.001Z,98213.03
2022-11-19T22:13:46.651Z,98211.97
2022-11-19T22:15:48.429Z,98210.53
2022-11-19T22:17:50.139Z,98211.63
2022-11-19T22:19:53.146Z,98208.09
2022-11-19T22:21:54.628Z,98203.50
2022-11-19T22:23:56.475Z,98196.44
2022-11-19T22:26:04.795Z,98200.19
2022-11-19T22:28:09.272Z,98208.50
2022-11-19T22:30:11.766Z,98203.94
2022-11-19T22:32:13.613Z,98203.09
2022-11-19T22:34:23.862Z,98203.72
2022-11-19T22:36:26.391Z,98195.81
2022-11-19T22:38:40.020Z,98195.22
2022-11-19T22:40:41.829Z,98187.69
2022-11-19T22:42:43.330Z,98186.03
2022-11-19T22:44:45.290Z,98180.88
2022-11-19T22:46:48.419Z,98183.56
2022-11-19T22:48:53.228Z,98186.03
2022-11-19T22:50:54.921Z,98180.28
2022-11-19T22:52:56.736Z,98177.34
2022-11-19T22:54:58.628Z,98181.91
2022-11-19T22:57:00.513Z,98175.47
2022-11-19T22:59:04.835Z,98174.63
2022-11-19T23:01:27.112Z,98176.50
2022-11-19T23:03:31.090Z,98171.09
2022-11-19T23:05:37.232Z,98172.38
2022-11-19T23:07:39.156Z,98185.69
2022-11-19T23:09:41.714Z,98174.88
2022-11-19T23:12:04.155Z,98170.06
2022-11-19T23:14:10.833Z,98169.81
2022-11-19T23:16:21.289Z,98165.09
2022-11-19T23:18:25.811Z,98155.13
2022-11-19T23:20:27.408Z,98165.09
2022-11-19T23:22:31.772Z,98166.97
2022-11-19T23:24:33.529Z,98170.75
2022-11-19T23:26:39.326Z,98167.22
2022-11-19T23:28:41.172Z,98179.91
2022-11-19T23:30:42.906Z,98179.06
2022-11-19T23:32:46.724Z,98192.84
2022-11-19T23:34:49.316Z,98184.13
2022-11-19T23:36:50.881Z,98180.34
2022-11-19T23:39:08.286Z,98172.50
2022-11-19T23:41:12.386Z,98170.38
2022-11-19T23:43:14.647Z,98170.13
2022-11-19T23:45:18.829Z,98171.78
2022-11-19T23:47:23.372Z,98165.56
2022-11-19T23:49:27.714Z,98169.09
2022-11-19T23:51:31.599Z,98172.84
2022-11-19T23:53:33.857Z,98169.91
2022-11-19T23:55:35.566Z,98177.19
2022-11-19T23:57:37.295Z,98176.97
2022-11-19T23:59:39.794Z,98167.09
